sensor_id;sensor_type;location;lat;lon;timestamp;P1;durP1;ratioP1;P2;durP2;ratioP2
20830;SDS011;10576;53.556;9.868;2022-07-10T00:00:35;4.10;;;1.10;;
20830;SDS011;10576;53.556;9.868;2022-07-10T00:03:02;3.67;;;1.10;;
20830;SDS011;10576;53.556;9.868;2022-07-10T00:05:29;4.22;;;1.20;;
20830;SDS011;10576;53.556;9.868;2022-07-10T00:07:55;3.20;;;1.17;;
20830;SDS011;10576;53.556;9.868;2022-07-10T00:10:21;4.40;;;1.08;;
20830;SDS011;10576;53.556;9.868;2022-07-10T00:12:47;2.33;;;0.85;;
20830;SDS011;10576;53.556;9.868;2022-07-10T00:15:14;5.15;;;1.30;;
20830;SDS011;10576;53.556;9.868;2022-07-10T00:17:41;2.25;;;1.17;;
20830;SDS011;10576;53.556;9.868;2022-07-10T00:20:10;3.87;;;1.23;;
20830;SDS011;10576;53.556;9.868;2022-07-10T00:22:37;3.72;;;1.15;;
20830;SDS011;10576;53.556;9.868;2022-07-10T00:25:04;3.92;;;1.20;;
20830;SDS011;10576;53.556;9.868;2022-07-10T00:27:30;1.80;;;1.00;;
20830;SDS011;10576;53.556;9.868;2022-07-10T00:29:56;3.25;;;0.90;;
20830;SDS011;10576;53.556;9.868;2022-07-10T00:32:23;3.45;;;1.17;;
20830;SDS011;10576;53.556;9.868;2022-07-10T00:34:48;3.93;;;1.00;;
20830;SDS011;10576;53.556;9.868;2022-07-10T00:37:15;3.28;;;1.02;;
20830;SDS011;10576;53.556;9.868;2022-07-10T00:39:41;4.50;;;1.23;;
20830;SDS011;10576;53.556;9.868;2022-07-10T00:42:07;3.42;;;1.10;;
20830;SDS011;10576;53.556;9.868;2022-07-10T00:44:37;3.42;;;1.00;;
20830;SDS011;10576;53.556;9.868;2022-07-10T00:47:04;3.55;;;0.88;;
20830;SDS011;10576;53.556;9.868;2022-07-10T00:49:30;2.90;;;1.00;;
20830;SDS011;10576;53.556;9.868;2022-07-10T00:51:56;2.53;;;0.90;;
20830;SDS011;10576;53.556;9.868;2022-07-10T00:54:24;4.63;;;1.05;;
20830;SDS011;10576;53.556;9.868;2022-07-10T00:56:50;2.77;;;1.00;;
20830;SDS011;10576;53.556;9.868;2022-07-10T00:59:16;4.05;;;1.27;;
20830;SDS011;10576;53.556;9.868;2022-07-10T01:01:43;4.68;;;1.23;;
20830;SDS011;10576;53.556;9.868;2022-07-10T01:04:09;5.45;;;1.00;;
20830;SDS011;10576;53.556;9.868;2022-07-10T01:06:35;2.63;;;0.80;;
20830;SDS011;10576;53.556;9.868;2022-07-10T01:09:01;2.58;;;0.95;;
20830;SDS011;10576;53.556;9.868;2022-07-10T01:11:28;2.22;;;1.00;;
20830;SDS011;10576;53.556;9.868;2022-07-10T01:13:54;3.40;;;0.90;;
20830;SDS011;10576;53.556;9.868;2022-07-10T01:16:20;2.10;;;0.70;;
20830;SDS011;10576;53.556;9.868;2022-07-10T01:18:47;3.53;;;0.93;;
20830;SDS011;10576;53.556;9.868;2022-07-10T01:21:28;2.13;;;1.10;;
20830;SDS011;10576;53.556;9.868;2022-07-10T01:23:56;2.30;;;0.98;;
20830;SDS011;10576;53.556;9.868;2022-07-10T01:26:22;3.03;;;1.05;;
20830;SDS011;10576;53.556;9.868;2022-07-10T01:28:52;3.95;;;1.17;;
20830;SDS011;10576;53.556;9.868;2022-07-10T01:31:19;2.22;;;1.08;;
20830;SDS011;10576;53.556;9.868;2022-07-10T01:33:55;4.40;;;1.27;;
20830;SDS011;10576;53.556;9.868;2022-07-10T01:36:21;4.43;;;1.00;;
20830;SDS011;10576;53.556;9.868;2022-07-10T01:38:48;3.67;;;1.00;;
20830;SDS011;10576;53.556;9.868;2022-07-10T01:41:16;3.03;;;1.10;;
20830;SDS011;10576;53.556;9.868;2022-07-10T01:43:42;3.73;;;1.10;;
20830;SDS011;10576;53.556;9.868;2022-07-10T01:46:09;3.10;;;1.17;;
20830;SDS011;10576;53.556;9.868;2022-07-10T01:48:37;3.70;;;1.30;;
20830;SDS011;10576;53.556;9.868;2022-07-10T01:51:03;5.83;;;1.20;;
20830;SDS011;10576;53.556;9.868;2022-07-10T01:53:30;4.45;;;1.13;;
20830;SDS011;10576;53.556;9.868;2022-07-10T01:55:55;5.57;;;1.43;;
20830;SDS011;10576;53.556;9.868;2022-07-10T01:58:21;4.28;;;1.20;;
20830;SDS011;10576;53.556;9.868;2022-07-10T02:00:47;4.68;;;1.30;;
20830;SDS011;10576;53.556;9.868;2022-07-10T02:03:13;3.70;;;1.30;;
20830;SDS011;10576;53.556;9.868;2022-07-10T02:05:57;3.37;;;1.20;;
20830;SDS011;10576;53.556;9.868;2022-07-10T02:08:23;4.20;;;1.10;;
20830;SDS011;10576;53.556;9.868;2022-07-10T02:10:48;3.17;;;1.03;;
20830;SDS011;10576;53.556;9.868;2022-07-10T02:13:14;2.43;;;1.07;;
20830;SDS011;10576;53.556;9.868;2022-07-10T02:15:42;3.30;;;0.90;;
20830;SDS011;10576;53.556;9.868;2022-07-10T02:18:08;6.60;;;0.98;;
20830;SDS011;10576;53.556;9.868;2022-07-10T02:20:34;8.52;;;1.35;;
20830;SDS011;10576;53.556;9.868;2022-07-10T02:23:01;4.78;;;1.10;;
20830;SDS011;10576;53.556;9.868;2022-07-10T02:25:26;7.03;;;1.43;;
20830;SDS011;10576;53.556;9.868;2022-07-10T02:27:52;6.87;;;1.50;;
20830;SDS011;10576;53.556;9.868;2022-07-10T02:30:18;3.77;;;1.40;;
20830;SDS011;10576;53.556;9.868;2022-07-10T02:32:44;3.60;;;1.10;;
20830;SDS011;10576;53.556;9.868;2022-07-10T02:35:09;6.70;;;1.30;;
20830;SDS011;10576;53.556;9.868;2022-07-10T02:37:35;5.67;;;1.47;;
20830;SDS011;10576;53.556;9.868;2022-07-10T02:40:00;3.93;;;1.40;;
20830;SDS011;10576;53.556;9.868;2022-07-10T02:42:26;5.23;;;1.40;;
20830;SDS011;10576;53.556;9.868;2022-07-10T02:44:52;5.80;;;1.80;;
20830;SDS011;10576;53.556;9.868;2022-07-10T02:47:17;5.40;;;1.70;;
20830;SDS011;10576;53.556;9.868;2022-07-10T02:49:43;5.20;;;1.50;;
20830;SDS011;10576;53.556;9.868;2022-07-10T02:52:09;5.30;;;1.35;;
20830;SDS011;10576;53.556;9.868;2022-07-10T02:54:35;4.68;;;1.42;;
20830;SDS011;10576;53.556;9.868;2022-07-10T02:57:01;4.83;;;1.53;;
20830;SDS011;10576;53.556;9.868;2022-07-10T02:59:26;3.83;;;1.80;;
20830;SDS011;10576;53.556;9.868;2022-07-10T03:01:52;6.43;;;2.10;;
20830;SDS011;10576;53.556;9.868;2022-07-10T03:04:17;4.40;;;1.40;;
20830;SDS011;10576;53.556;9.868;2022-07-10T03:06:43;5.13;;;1.70;;
20830;SDS011;10576;53.556;9.868;2022-07-10T03:09:09;6.73;;;1.80;;
20830;SDS011;10576;53.556;9.868;2022-07-10T03:11:34;8.73;;;1.67;;
20830;SDS011;10576;53.556;9.868;2022-07-10T03:14:00;5.73;;;1.63;;
20830;SDS011;10576;53.556;9.868;2022-07-10T03:16:26;3.87;;;1.33;;
20830;SDS011;10576;53.556;9.868;2022-07-10T03:18:52;5.50;;;1.73;;
20830;SDS011;10576;53.556;9.868;2022-07-10T03:21:17;5.33;;;1.70;;
20830;SDS011;10576;53.556;9.868;2022-07-10T03:23:43;5.03;;;2.10;;
20830;SDS011;10576;53.556;9.868;2022-07-10T03:26:09;4.40;;;1.60;;
20830;SDS011;10576;53.556;9.868;2022-07-10T03:28:34;5.60;;;1.80;;
20830;SDS011;10576;53.556;9.868;2022-07-10T03:31:01;4.67;;;1.60;;
20830;SDS011;10576;53.556;9.868;2022-07-10T03:33:27;9.15;;;2.00;;
20830;SDS011;10576;53.556;9.868;2022-07-10T03:35:53;5.32;;;2.15;;
20830;SDS011;10576;53.556;9.868;2022-07-10T03:38:19;5.20;;;1.75;;
20830;SDS011;10576;53.556;9.868;2022-07-10T03:40:45;6.53;;;1.73;;
20830;SDS011;10576;53.556;9.868;2022-07-10T03:43:13;6.38;;;1.85;;
20830;SDS011;10576;53.556;9.868;2022-07-10T03:45:39;6.70;;;1.67;;
20830;SDS011;10576;53.556;9.868;2022-07-10T03:48:05;6.20;;;1.88;;
20830;SDS011;10576;53.556;9.868;2022-07-10T03:50:31;5.95;;;1.88;;
20830;SDS011;10576;53.556;9.868;2022-07-10T03:52:57;4.30;;;1.63;;
20830;SDS011;10576;53.556;9.868;2022-07-10T03:55:23;6.80;;;1.80;;
20830;SDS011;10576;53.556;9.868;2022-07-10T03:57:49;5.43;;;1.67;;
20830;SDS011;10576;53.556;9.868;2022-07-10T04:00:27;4.55;;;2.10;;
20830;SDS011;10576;53.556;9.868;2022-07-10T04:02:58;7.43;;;2.17;;
20830;SDS011;10576;53.556;9.868;2022-07-10T04:05:25;5.40;;;1.90;;
20830;SDS011;10576;53.556;9.868;2022-07-10T04:07:52;5.57;;;1.60;;
20830;SDS011;10576;53.556;9.868;2022-07-10T04:10:18;5.43;;;2.10;;
20830;SDS011;10576;53.556;9.868;2022-07-10T04:12:44;8.88;;;2.00;;
20830;SDS011;10576;53.556;9.868;2022-07-10T04:15:10;5.90;;;2.10;;
20830;SDS011;10576;53.556;9.868;2022-07-10T04:17:36;7.47;;;2.30;;
20830;SDS011;10576;53.556;9.868;2022-07-10T04:20:02;6.63;;;2.10;;
20830;SDS011;10576;53.556;9.868;2022-07-10T04:22:28;8.50;;;2.10;;
20830;SDS011;10576;53.556;9.868;2022-07-10T04:24:54;6.97;;;2.20;;
20830;SDS011;10576;53.556;9.868;2022-07-10T04:27:20;7.67;;;2.57;;
20830;SDS011;10576;53.556;9.868;2022-07-10T04:29:46;10.10;;;2.13;;
20830;SDS011;10576;53.556;9.868;2022-07-10T04:32:12;7.53;;;2.17;;
20830;SDS011;10576;53.556;9.868;2022-07-10T04:34:38;6.30;;;2.10;;
20830;SDS011;10576;53.556;9.868;2022-07-10T04:37:04;6.53;;;2.17;;
20830;SDS011;10576;53.556;9.868;2022-07-10T04:39:30;7.10;;;2.25;;
20830;SDS011;10576;53.556;9.868;2022-07-10T04:41:56;8.70;;;2.22;;
20830;SDS011;10576;53.556;9.868;2022-07-10T04:44:22;5.68;;;2.30;;
20830;SDS011;10576;53.556;9.868;2022-07-10T04:46:47;8.55;;;2.50;;
20830;SDS011;10576;53.556;9.868;2022-07-10T04:49:13;6.55;;;2.40;;
20830;SDS011;10576;53.556;9.868;2022-07-10T04:51:39;9.02;;;2.50;;
20830;SDS011;10576;53.556;9.868;2022-07-10T04:54:05;9.05;;;2.30;;
20830;SDS011;10576;53.556;9.868;2022-07-10T04:56:30;7.70;;;2.15;;
20830;SDS011;10576;53.556;9.868;2022-07-10T04:58:56;9.93;;;2.50;;
20830;SDS011;10576;53.556;9.868;2022-07-10T05:01:22;8.23;;;2.60;;
20830;SDS011;10576;53.556;9.868;2022-07-10T05:03:48;12.30;;;2.75;;
20830;SDS011;10576;53.556;9.868;2022-07-10T05:06:14;10.43;;;2.77;;
20830;SDS011;10576;53.556;9.868;2022-07-10T05:08:39;8.40;;;2.80;;
20830;SDS011;10576;53.556;9.868;2022-07-10T05:11:05;13.83;;;2.93;;
20830;SDS011;10576;53.556;9.868;2022-07-10T05:13:31;8.73;;;2.70;;
20830;SDS011;10576;53.556;9.868;2022-07-10T05:15:56;7.85;;;2.88;;
20830;SDS011;10576;53.556;9.868;2022-07-10T05:18:22;9.68;;;2.50;;
20830;SDS011;10576;53.556;9.868;2022-07-10T05:20:48;8.85;;;2.45;;
20830;SDS011;10576;53.556;9.868;2022-07-10T05:23:14;11.93;;;2.77;;
20830;SDS011;10576;53.556;9.868;2022-07-10T05:25:40;8.48;;;2.53;;
20830;SDS011;10576;53.556;9.868;2022-07-10T05:28:06;7.30;;;2.53;;
20830;SDS011;10576;53.556;9.868;2022-07-10T05:30:32;11.93;;;2.83;;
20830;SDS011;10576;53.556;9.868;2022-07-10T05:32:58;11.43;;;2.50;;
20830;SDS011;10576;53.556;9.868;2022-07-10T05:35:25;10.13;;;2.57;;
20830;SDS011;10576;53.556;9.868;2022-07-10T05:37:51;7.47;;;2.28;;
20830;SDS011;10576;53.556;9.868;2022-07-10T05:40:18;11.25;;;2.80;;
20830;SDS011;10576;53.556;9.868;2022-07-10T05:42:43;7.70;;;2.58;;
20830;SDS011;10576;53.556;9.868;2022-07-10T05:45:10;8.97;;;2.40;;
20830;SDS011;10576;53.556;9.868;2022-07-10T05:47:36;5.85;;;1.80;;
20830;SDS011;10576;53.556;9.868;2022-07-10T05:50:02;10.07;;;2.70;;
20830;SDS011;10576;53.556;9.868;2022-07-10T05:52:28;9.88;;;2.55;;
20830;SDS011;10576;53.556;9.868;2022-07-10T05:54:55;10.60;;;2.40;;
20830;SDS011;10576;53.556;9.868;2022-07-10T05:57:21;9.27;;;2.10;;
20830;SDS011;10576;53.556;9.868;2022-07-10T05:59:47;5.00;;;2.00;;
20830;SDS011;10576;53.556;9.868;2022-07-10T06:02:13;10.87;;;2.57;;
20830;SDS011;10576;53.556;9.868;2022-07-10T06:04:39;7.37;;;2.50;;
20830;SDS011;10576;53.556;9.868;2022-07-10T06:07:04;8.27;;;2.20;;
20830;SDS011;10576;53.556;9.868;2022-07-10T06:09:30;9.50;;;2.70;;
20830;SDS011;10576;53.556;9.868;2022-07-10T06:11:56;10.37;;;2.30;;
20830;SDS011;10576;53.556;9.868;2022-07-10T06:14:21;8.40;;;2.33;;
20830;SDS011;10576;53.556;9.868;2022-07-10T06:16:47;9.68;;;2.72;;
20830;SDS011;10576;53.556;9.868;2022-07-10T06:19:13;9.60;;;2.45;;
20830;SDS011;10576;53.556;9.868;2022-07-10T06:21:38;11.50;;;2.55;;
20830;SDS011;10576;53.556;9.868;2022-07-10T06:24:04;7.53;;;2.50;;
20830;SDS011;10576;53.556;9.868;2022-07-10T06:26:30;8.07;;;2.35;;
20830;SDS011;10576;53.556;9.868;2022-07-10T06:28:55;9.37;;;2.43;;
20830;SDS011;10576;53.556;9.868;2022-07-10T06:31:21;10.80;;;2.50;;
20830;SDS011;10576;53.556;9.868;2022-07-10T06:33:47;9.10;;;2.13;;
20830;SDS011;10576;53.556;9.868;2022-07-10T06:36:13;8.30;;;2.50;;
20830;SDS011;10576;53.556;9.868;2022-07-10T06:38:38;6.97;;;2.23;;
20830;SDS011;10576;53.556;9.868;2022-07-10T06:41:04;9.82;;;2.50;;
20830;SDS011;10576;53.556;9.868;2022-07-10T06:43:30;7.33;;;2.33;;
20830;SDS011;10576;53.556;9.868;2022-07-10T06:45:56;12.63;;;2.73;;
20830;SDS011;10576;53.556;9.868;2022-07-10T06:48:22;9.37;;;2.10;;
20830;SDS011;10576;53.556;9.868;2022-07-10T06:50:48;8.67;;;2.00;;
20830;SDS011;10576;53.556;9.868;2022-07-10T06:53:14;10.80;;;2.33;;
20830;SDS011;10576;53.556;9.868;2022-07-10T06:55:40;10.07;;;2.30;;
20830;SDS011;10576;53.556;9.868;2022-07-10T06:58:06;7.25;;;2.17;;
20830;SDS011;10576;53.556;9.868;2022-07-10T07:00:32;6.70;;;2.10;;
20830;SDS011;10576;53.556;9.868;2022-07-10T07:02:57;9.43;;;2.20;;
20830;SDS011;10576;53.556;9.868;2022-07-10T07:05:23;7.47;;;2.10;;
20830;SDS011;10576;53.556;9.868;2022-07-10T07:07:49;8.57;;;2.13;;
20830;SDS011;10576;53.556;9.868;2022-07-10T07:10:14;9.77;;;2.73;;
20830;SDS011;10576;53.556;9.868;2022-07-10T07:12:40;7.80;;;2.17;;
20830;SDS011;10576;53.556;9.868;2022-07-10T07:15:06;8.00;;;2.20;;
20830;SDS011;10576;53.556;9.868;2022-07-10T07:17:32;8.50;;;1.95;;
20830;SDS011;10576;53.556;9.868;2022-07-10T07:20:21;9.38;;;2.50;;
20830;SDS011;10576;53.556;9.868;2022-07-10T07:23:07;7.43;;;2.08;;
20830;SDS011;10576;53.556;9.868;2022-07-10T07:25:35;10.68;;;2.22;;
20830;SDS011;10576;53.556;9.868;2022-07-10T07:28:03;7.47;;;2.10;;
20830;SDS011;10576;53.556;9.868;2022-07-10T07:30:29;10.13;;;2.20;;
20830;SDS011;10576;53.556;9.868;2022-07-10T07:32:55;4.85;;;1.90;;
20830;SDS011;10576;53.556;9.868;2022-07-10T07:35:20;7.67;;;1.70;;
20830;SDS011;10576;53.556;9.868;2022-07-10T07:37:47;6.93;;;2.33;;
20830;SDS011;10576;53.556;9.868;2022-07-10T07:40:15;11.38;;;2.47;;
20830;SDS011;10576;53.556;9.868;2022-07-10T07:42:46;6.82;;;2.00;;
20830;SDS011;10576;53.556;9.868;2022-07-10T07:45:12;7.97;;;1.90;;
20830;SDS011;10576;53.556;9.868;2022-07-10T07:50:17;7.78;;;1.95;;
20830;SDS011;10576;53.556;9.868;2022-07-10T07:52:44;6.65;;;1.85;;
20830;SDS011;10576;53.556;9.868;2022-07-10T07:55:11;6.88;;;1.83;;
20830;SDS011;10576;53.556;9.868;2022-07-10T07:57:38;7.20;;;1.80;;
20830;SDS011;10576;53.556;9.868;2022-07-10T08:00:04;15.50;;;2.53;;
20830;SDS011;10576;53.556;9.868;2022-07-10T08:02:32;8.23;;;1.70;;
20830;SDS011;10576;53.556;9.868;2022-07-10T08:04:57;4.97;;;1.90;;
20830;SDS011;10576;53.556;9.868;2022-07-10T08:07:32;5.53;;;1.97;;
20830;SDS011;10576;53.556;9.868;2022-07-10T08:10:02;8.05;;;1.80;;
20830;SDS011;10576;53.556;9.868;2022-07-10T08:12:29;4.95;;;1.83;;
20830;SDS011;10576;53.556;9.868;2022-07-10T08:14:54;9.77;;;1.97;;
20830;SDS011;10576;53.556;9.868;2022-07-10T08:17:20;5.43;;;1.73;;
20830;SDS011;10576;53.556;9.868;2022-07-10T08:19:46;6.72;;;1.77;;
20830;SDS011;10576;53.556;9.868;2022-07-10T08:22:12;7.10;;;1.88;;
20830;SDS011;10576;53.556;9.868;2022-07-10T08:24:38;6.68;;;1.75;;
20830;SDS011;10576;53.556;9.868;2022-07-10T08:27:04;5.82;;;1.85;;
20830;SDS011;10576;53.556;9.868;2022-07-10T08:29:32;5.40;;;1.88;;
20830;SDS011;10576;53.556;9.868;2022-07-10T08:31:58;8.00;;;1.92;;
20830;SDS011;10576;53.556;9.868;2022-07-10T08:34:24;8.13;;;1.90;;
20830;SDS011;10576;53.556;9.868;2022-07-10T08:36:52;7.95;;;1.95;;
20830;SDS011;10576;53.556;9.868;2022-07-10T08:39:18;5.57;;;1.93;;
20830;SDS011;10576;53.556;9.868;2022-07-10T08:41:46;6.78;;;1.92;;
20830;SDS011;10576;53.556;9.868;2022-07-10T08:44:15;4.25;;;1.88;;
20830;SDS011;10576;53.556;9.868;2022-07-10T08:46:44;6.78;;;1.83;;
20830;SDS011;10576;53.556;9.868;2022-07-10T08:49:11;6.80;;;1.90;;
20830;SDS011;10576;53.556;9.868;2022-07-10T08:51:57;6.40;;;1.63;;
20830;SDS011;10576;53.556;9.868;2022-07-10T08:54:31;7.65;;;2.00;;
20830;SDS011;10576;53.556;9.868;2022-07-10T08:56:58;5.22;;;1.85;;
20830;SDS011;10576;53.556;9.868;2022-07-10T08:59:26;6.13;;;1.58;;
20830;SDS011;10576;53.556;9.868;2022-07-10T09:01:53;4.47;;;1.60;;
20830;SDS011;10576;53.556;9.868;2022-07-10T09:04:20;6.38;;;1.70;;
20830;SDS011;10576;53.556;9.868;2022-07-10T09:06:47;7.20;;;1.70;;
20830;SDS011;10576;53.556;9.868;2022-07-10T09:09:12;4.77;;;1.70;;
20830;SDS011;10576;53.556;9.868;2022-07-10T09:11:39;5.55;;;1.50;;
20830;SDS011;10576;53.556;9.868;2022-07-10T09:14:09;6.22;;;1.83;;
20830;SDS011;10576;53.556;9.868;2022-07-10T09:16:39;4.68;;;1.48;;
20830;SDS011;10576;53.556;9.868;2022-07-10T09:21:46;3.73;;;1.53;;
20830;SDS011;10576;53.556;9.868;2022-07-10T09:24:13;4.95;;;1.58;;
20830;SDS011;10576;53.556;9.868;2022-07-10T09:26:45;5.43;;;1.40;;
20830;SDS011;10576;53.556;9.868;2022-07-10T09:29:19;4.70;;;1.27;;
20830;SDS011;10576;53.556;9.868;2022-07-10T09:32:02;5.13;;;1.60;;
20830;SDS011;10576;53.556;9.868;2022-07-10T09:34:42;5.68;;;1.38;;
20830;SDS011;10576;53.556;9.868;2022-07-10T09:37:18;5.05;;;1.67;;
20830;SDS011;10576;53.556;9.868;2022-07-10T09:42:41;4.78;;;1.42;;
20830;SDS011;10576;53.556;9.868;2022-07-10T09:47:39;3.58;;;1.20;;
20830;SDS011;10576;53.556;9.868;2022-07-10T09:50:19;5.43;;;1.70;;
20830;SDS011;10576;53.556;9.868;2022-07-10T09:52:52;6.65;;;1.40;;
20830;SDS011;10576;53.556;9.868;2022-07-10T09:55:19;4.43;;;1.63;;
20830;SDS011;10576;53.556;9.868;2022-07-10T09:57:51;6.45;;;1.50;;
20830;SDS011;10576;53.556;9.868;2022-07-10T10:00:19;1.95;;;1.20;;
20830;SDS011;10576;53.556;9.868;2022-07-10T10:02:55;5.47;;;1.50;;
20830;SDS011;10576;53.556;9.868;2022-07-10T10:05:24;6.30;;;1.38;;
20830;SDS011;10576;53.556;9.868;2022-07-10T10:07:57;5.53;;;1.67;;
20830;SDS011;10576;53.556;9.868;2022-07-10T10:10:27;6.95;;;1.60;;
20830;SDS011;10576;53.556;9.868;2022-07-10T10:12:54;3.63;;;1.45;;
20830;SDS011;10576;53.556;9.868;2022-07-10T10:15:24;6.07;;;1.35;;
20830;SDS011;10576;53.556;9.868;2022-07-10T10:17:51;6.00;;;1.50;;
20830;SDS011;10576;53.556;9.868;2022-07-10T10:20:18;5.55;;;1.38;;
20830;SDS011;10576;53.556;9.868;2022-07-10T10:23:10;4.75;;;1.40;;
20830;SDS011;10576;53.556;9.868;2022-07-10T10:25:38;7.63;;;1.65;;
20830;SDS011;10576;53.556;9.868;2022-07-10T10:28:04;3.70;;;1.60;;
20830;SDS011;10576;53.556;9.868;2022-07-10T10:30:32;4.78;;;1.70;;
20830;SDS011;10576;53.556;9.868;2022-07-10T10:33:01;4.35;;;1.30;;
20830;SDS011;10576;53.556;9.868;2022-07-10T10:36:00;5.05;;;1.45;;
20830;SDS011;10576;53.556;9.868;2022-07-10T10:38:19;7.07;;;1.67;;
20830;SDS011;10576;53.556;9.868;2022-07-10T10:40:45;6.03;;;1.60;;
20830;SDS011;10576;53.556;9.868;2022-07-10T10:43:16;3.60;;;1.50;;
20830;SDS011;10576;53.556;9.868;2022-07-10T10:45:46;5.57;;;1.33;;
20830;SDS011;10576;53.556;9.868;2022-07-10T10:48:16;8.93;;;1.80;;
20830;SDS011;10576;53.556;9.868;2022-07-10T10:50:50;4.60;;;1.50;;
20830;SDS011;10576;53.556;9.868;2022-07-10T10:53:23;4.78;;;1.52;;
20830;SDS011;10576;53.556;9.868;2022-07-10T10:58:35;6.22;;;1.65;;
20830;SDS011;10576;53.556;9.868;2022-07-10T11:01:04;4.38;;;1.50;;
20830;SDS011;10576;53.556;9.868;2022-07-10T11:03:31;5.97;;;1.48;;
20830;SDS011;10576;53.556;9.868;2022-07-10T11:05:57;5.67;;;1.30;;
20830;SDS011;10576;53.556;9.868;2022-07-10T11:08:41;5.63;;;1.50;;
20830;SDS011;10576;53.556;9.868;2022-07-10T11:13:56;4.60;;;1.50;;
20830;SDS011;10576;53.556;9.868;2022-07-10T11:16:22;5.05;;;1.60;;
20830;SDS011;10576;53.556;9.868;2022-07-10T11:18:52;5.20;;;1.50;;
20830;SDS011;10576;53.556;9.868;2022-07-10T11:21:23;6.07;;;1.58;;
20830;SDS011;10576;53.556;9.868;2022-07-10T11:26:24;5.85;;;1.40;;
20830;SDS011;10576;53.556;9.868;2022-07-10T11:29:19;4.55;;;1.30;;
20830;SDS011;10576;53.556;9.868;2022-07-10T11:31:51;4.87;;;1.10;;
20830;SDS011;10576;53.556;9.868;2022-07-10T11:34:18;5.07;;;1.40;;
20830;SDS011;10576;53.556;9.868;2022-07-10T11:36:44;6.55;;;1.45;;
20830;SDS011;10576;53.556;9.868;2022-07-10T11:39:12;5.78;;;1.17;;
20830;SDS011;10576;53.556;9.868;2022-07-10T11:41:43;3.47;;;1.10;;
20830;SDS011;10576;53.556;9.868;2022-07-10T11:44:13;7.20;;;1.60;;
20830;SDS011;10576;53.556;9.868;2022-07-10T11:46:41;5.15;;;1.40;;
20830;SDS011;10576;53.556;9.868;2022-07-10T11:49:09;7.20;;;1.52;;
20830;SDS011;10576;53.556;9.868;2022-07-10T11:51:36;6.80;;;1.60;;
20830;SDS011;10576;53.556;9.868;2022-07-10T11:54:08;3.95;;;1.00;;
20830;SDS011;10576;53.556;9.868;2022-07-10T11:56:36;5.03;;;1.55;;
20830;SDS011;10576;53.556;9.868;2022-07-10T11:59:10;7.93;;;1.70;;
20830;SDS011;10576;53.556;9.868;2022-07-10T12:01:43;4.55;;;1.33;;
20830;SDS011;10576;53.556;9.868;2022-07-10T12:04:10;4.15;;;1.20;;
20830;SDS011;10576;53.556;9.868;2022-07-10T12:06:41;5.05;;;1.50;;
20830;SDS011;10576;53.556;9.868;2022-07-10T12:09:15;3.63;;;1.50;;
20830;SDS011;10576;53.556;9.868;2022-07-10T12:11:43;7.90;;;1.75;;
20830;SDS011;10576;53.556;9.868;2022-07-10T12:14:22;4.32;;;1.20;;
20830;SDS011;10576;53.556;9.868;2022-07-10T12:16:51;3.08;;;1.20;;
20830;SDS011;10576;53.556;9.868;2022-07-10T12:19:18;5.45;;;1.30;;
20830;SDS011;10576;53.556;9.868;2022-07-10T12:21:48;4.38;;;1.70;;
20830;SDS011;10576;53.556;9.868;2022-07-10T12:24:18;6.07;;;1.30;;
20830;SDS011;10576;53.556;9.868;2022-07-10T12:26:45;7.72;;;1.50;;
20830;SDS011;10576;53.556;9.868;2022-07-10T12:31:43;6.57;;;1.80;;
20830;SDS011;10576;53.556;9.868;2022-07-10T12:34:10;6.18;;;1.50;;
20830;SDS011;10576;53.556;9.868;2022-07-10T12:39:09;6.70;;;1.70;;
20830;SDS011;10576;53.556;9.868;2022-07-10T12:41:55;6.10;;;1.48;;
20830;SDS011;10576;53.556;9.868;2022-07-10T12:44:31;8.17;;;1.60;;
20830;SDS011;10576;53.556;9.868;2022-07-10T12:47:00;3.72;;;1.33;;
20830;SDS011;10576;53.556;9.868;2022-07-10T12:52:30;4.35;;;1.38;;
20830;SDS011;10576;53.556;9.868;2022-07-10T13:00:28;4.83;;;1.40;;
20830;SDS011;10576;53.556;9.868;2022-07-10T13:02:59;4.33;;;1.33;;
20830;SDS011;10576;53.556;9.868;2022-07-10T13:05:32;5.47;;;1.50;;
20830;SDS011;10576;53.556;9.868;2022-07-10T13:08:06;6.88;;;1.67;;
20830;SDS011;10576;53.556;9.868;2022-07-10T13:10:37;6.88;;;1.40;;
20830;SDS011;10576;53.556;9.868;2022-07-10T13:13:04;4.30;;;1.65;;
20830;SDS011;10576;53.556;9.868;2022-07-10T13:15:30;7.28;;;1.60;;
20830;SDS011;10576;53.556;9.868;2022-07-10T13:17:56;5.30;;;1.40;;
20830;SDS011;10576;53.556;9.868;2022-07-10T13:20:22;6.50;;;1.67;;
20830;SDS011;10576;53.556;9.868;2022-07-10T13:22:48;6.25;;;1.52;;
20830;SDS011;10576;53.556;9.868;2022-07-10T13:25:14;4.60;;;1.40;;
20830;SDS011;10576;53.556;9.868;2022-07-10T13:27:40;7.33;;;1.87;;
20830;SDS011;10576;53.556;9.868;2022-07-10T13:30:07;6.63;;;1.65;;
20830;SDS011;10576;53.556;9.868;2022-07-10T13:32:33;7.17;;;1.80;;
20830;SDS011;10576;53.556;9.868;2022-07-10T13:34:59;6.47;;;1.53;;
20830;SDS011;10576;53.556;9.868;2022-07-10T13:37:25;6.13;;;1.60;;
20830;SDS011;10576;53.556;9.868;2022-07-10T13:39:51;7.25;;;1.50;;
20830;SDS011;10576;53.556;9.868;2022-07-10T13:42:16;5.13;;;1.50;;
20830;SDS011;10576;53.556;9.868;2022-07-10T13:44:42;5.15;;;1.50;;
20830;SDS011;10576;53.556;9.868;2022-07-10T13:47:08;4.10;;;1.20;;
20830;SDS011;10576;53.556;9.868;2022-07-10T13:49:33;5.00;;;1.70;;
20830;SDS011;10576;53.556;9.868;2022-07-10T13:51:59;5.05;;;1.65;;
20830;SDS011;10576;53.556;9.868;2022-07-10T13:54:25;5.47;;;1.60;;
20830;SDS011;10576;53.556;9.868;2022-07-10T13:56:51;4.80;;;1.42;;
20830;SDS011;10576;53.556;9.868;2022-07-10T13:59:16;5.80;;;1.50;;
20830;SDS011;10576;53.556;9.868;2022-07-10T14:01:42;6.37;;;1.63;;
20830;SDS011;10576;53.556;9.868;2022-07-10T14:04:08;5.43;;;1.70;;
20830;SDS011;10576;53.556;9.868;2022-07-10T14:06:34;7.13;;;1.50;;
20830;SDS011;10576;53.556;9.868;2022-07-10T14:08:59;8.13;;;1.90;;
20830;SDS011;10576;53.556;9.868;2022-07-10T14:11:26;4.68;;;1.30;;
20830;SDS011;10576;53.556;9.868;2022-07-10T14:13:52;4.15;;;1.42;;
20830;SDS011;10576;53.556;9.868;2022-07-10T14:16:18;3.90;;;1.38;;
20830;SDS011;10576;53.556;9.868;2022-07-10T14:18:43;4.22;;;1.58;;
20830;SDS011;10576;53.556;9.868;2022-07-10T14:21:10;7.32;;;1.55;;
20830;SDS011;10576;53.556;9.868;2022-07-10T14:23:40;6.72;;;1.80;;
20830;SDS011;10576;53.556;9.868;2022-07-10T14:26:09;4.15;;;1.58;;
20830;SDS011;10576;53.556;9.868;2022-07-10T14:28:36;6.70;;;1.50;;
20830;SDS011;10576;53.556;9.868;2022-07-10T14:31:03;8.00;;;1.50;;
20830;SDS011;10576;53.556;9.868;2022-07-10T14:33:30;5.55;;;1.20;;
20830;SDS011;10576;53.556;9.868;2022-07-10T14:35:56;4.75;;;1.45;;
20830;SDS011;10576;53.556;9.868;2022-07-10T14:38:22;6.25;;;1.52;;
20830;SDS011;10576;53.556;9.868;2022-07-10T14:40:48;4.57;;;1.50;;
20830;SDS011;10576;53.556;9.868;2022-07-10T14:43:16;5.85;;;1.48;;
20830;SDS011;10576;53.556;9.868;2022-07-10T14:45:42;6.53;;;1.40;;
20830;SDS011;10576;53.556;9.868;2022-07-10T14:48:08;6.13;;;1.37;;
20830;SDS011;10576;53.556;9.868;2022-07-10T14:50:34;4.57;;;1.50;;
20830;SDS011;10576;53.556;9.868;2022-07-10T14:52:59;7.07;;;1.70;;
20830;SDS011;10576;53.556;9.868;2022-07-10T14:55:25;4.53;;;1.30;;
20830;SDS011;10576;53.556;9.868;2022-07-10T14:57:51;6.65;;;1.63;;
20830;SDS011;10576;53.556;9.868;2022-07-10T15:00:16;4.00;;;1.27;;
20830;SDS011;10576;53.556;9.868;2022-07-10T15:02:43;5.53;;;1.38;;
20830;SDS011;10576;53.556;9.868;2022-07-10T15:05:09;4.40;;;1.48;;
20830;SDS011;10576;53.556;9.868;2022-07-10T15:07:35;6.87;;;1.50;;
